Time;durP1;ratioP1;P1;durP2;ratioP2;P2;SDS_P1;SDS_P2;PMS_P1;PMS_P2;Temp;Humidity;BMP_temperature;BMP_pressure;BME280_temperature;BME280_humidity;BME280_pressure;Samples;Min_cycle;Max_cycle;Signal;HPM_P1;HPM_P2
2022/08/06 00:01:36;;;;;;;13.27;9.93;;;21.70;72.20;;;;;;5072335;28;20466;-78
2022/08/06 00:04:02;;;;;;;11.60;9.32;;;21.60;72.50;;;;;;5071963;28;20025;-78
2022/08/06 00:06:29;;;;;;;11.95;9.45;;;21.50;72.30;;;;;;5055501;28;20460;-78
2022/08/06 00:08:55;;;;;;;13.02;9.20;;;21.50;72.80;;;;;;5071929;28;20458;-79
2022/08/06 00:11:20;;;;;;;13.23;8.98;;;21.60;72.90;;;;;;5071705;28;20058;-79
2022/08/06 00:13:46;;;;;;;12.23;9.32;;;21.60;72.80;;;;;;5071880;28;20033;-78
2022/08/06 00:16:12;;;;;;;14.13;9.20;;;21.50;72.90;;;;;;5055389;28;20485;-78
2022/08/06 00:18:38;;;;;;;10.25;7.97;;;21.50;73.30;;;;;;5071852;28;20125;-78
2022/08/06 00:21:04;;;;;;;13.38;7.85;;;21.50;72.90;;;;;;5073092;28;20410;-77
2022/08/06 00:23:32;;;;;;;11.18;7.65;;;21.50;72.80;;;;;;5071885;28;20056;-77
2022/08/06 00:25:58;;;;;;;11.73;7.97;;;21.60;72.10;;;;;;5071720;28;20119;-78
2022/08/06 00:28:25;;;;;;;8.88;6.68;;;21.60;72.30;;;;;;5072206;28;20119;-77
2022/08/06 00:30:51;;;;;;;9.55;7.13;;;21.50;72.40;;;;;;5060299;28;20028;-78
2022/08/06 00:33:22;;;;;;;7.88;7.07;;;21.40;71.70;;;;;;5071686;28;20370;-77
2022/08/06 00:35:48;;;;;;;12.55;7.00;;;21.40;71.50;;;;;;5069445;28;20062;-80
2022/08/06 00:38:16;;;;;;;8.93;6.18;;;21.40;71.50;;;;;;5054219;28;20044;-78
2022/08/06 00:40:43;;;;;;;7.25;5.65;;;21.40;71.20;;;;;;5071502;28;20052;-79
2022/08/06 00:43:08;;;;;;;10.55;7.05;;;21.30;71.10;;;;;;5071171;28;20031;-79
2022/08/06 00:45:34;;;;;;;9.95;6.63;;;21.20;71.10;;;;;;5071707;28;20108;-78
2022/08/06 00:48:01;;;;;;;7.68;5.65;;;21.00;71.50;;;;;;5071564;28;20052;-79
2022/08/06 00:50:27;;;;;;;6.50;5.43;;;21.00;72.40;;;;;;5054861;28;20143;-78
2022/08/06 00:52:54;;;;;;;6.00;5.07;;;21.00;72.40;;;;;;5055175;28;20031;-79
2022/08/06 00:55:21;;;;;;;6.20;5.30;;;21.00;71.80;;;;;;5071524;28;20032;-79
2022/08/06 00:57:46;;;;;;;8.32;5.38;;;21.00;72.00;;;;;;5071259;28;20032;-79
2022/08/06 01:00:13;;;;;;;6.70;4.60;;;21.00;72.20;;;;;;5071445;28;20065;-79
2022/08/06 01:02:38;;;;;;;4.97;4.35;;;21.10;71.70;;;;;;5071711;28;20398;-79
2022/08/06 01:05:05;;;;;;;4.63;3.72;;;21.20;69.90;;;;;;5071312;28;20020;-80
2022/08/06 01:07:30;;;;;;;4.53;3.67;;;21.20;69.00;;;;;;5071316;28;20028;-79
2022/08/06 01:09:56;;;;;;;5.57;3.53;;;21.10;69.20;;;;;;5071271;28;20458;-78
2022/08/06 01:12:23;;;;;;;4.70;3.40;;;21.20;69.40;;;;;;5071455;28;20082;-78
2022/08/06 01:14:51;;;;;;;6.35;3.25;;;21.20;68.80;;;;;;5054514;28;20532;-78
2022/08/06 01:17:29;;;;;;;6.43;3.53;;;21.10;68.70;;;;;;5071457;28;20043;-79
2022/08/06 01:20:22;;;;;;;4.93;3.03;;;21.10;68.50;;;;;;5072530;28;20044;-79
2022/08/06 01:23:35;;;;;;;4.88;3.50;;;20.90;69.20;;;;;;5072929;28;20040;-79
2022/08/06 01:26:40;;;;;;;5.07;3.28;;;20.90;69.20;;;;;;5095370;28;20098;-79
2022/08/06 01:29:12;;;;;;;4.30;2.88;;;20.80;69.40;;;;;;5090981;28;20024;-78
2022/08/06 01:31:44;;;;;;;5.15;3.28;;;20.80;69.10;;;;;;5092262;28;20028;-79
2022/08/06 01:34:22;;;;;;;3.85;3.30;;;20.90;69.00;;;;;;5079035;28;20028;-79
2022/08/06 01:36:51;;;;;;;3.10;2.67;;;20.80;69.30;;;;;;5072464;28;20516;-79
2022/08/06 01:39:19;;;;;;;4.22;2.70;;;20.70;68.90;;;;;;5075986;28;20108;-79
2022/08/06 01:41:48;;;;;;;4.07;2.92;;;20.60;68.70;;;;;;5074829;28;20052;-79
2022/08/06 01:44:20;;;;;;;3.17;2.50;;;20.70;68.40;;;;;;5074771;28;20024;-81
2022/08/06 01:46:52;;;;;;;4.32;2.83;;;20.70;68.10;;;;;;5057745;28;20036;-81
2022/08/06 01:49:22;;;;;;;3.40;2.25;;;20.70;68.30;;;;;;5074272;28;20036;-80
2022/08/06 01:51:52;;;;;;;3.72;2.50;;;20.70;68.00;;;;;;5075781;28;20029;-80
2022/08/06 01:54:20;;;;;;;4.68;2.58;;;20.60;68.40;;;;;;5074615;28;20599;-80
2022/08/06 01:56:50;;;;;;;3.83;2.58;;;20.50;68.70;;;;;;5073932;28;20036;-80
2022/08/06 01:59:19;;;;;;;3.72;2.53;;;20.50;68.40;;;;;;5074536;28;20028;-79
2022/08/06 02:01:52;;;;;;;4.32;2.60;;;20.50;68.70;;;;;;5074286;28;20031;-79
2022/08/06 02:04:19;;;;;;;2.40;2.13;;;20.50;68.80;;;;;;5074468;28;20351;-79
2022/08/06 02:06:47;;;;;;;5.13;2.67;;;20.50;69.30;;;;;;5074209;28;20056;-79
2022/08/06 02:09:18;;;;;;;4.50;2.17;;;20.50;69.10;;;;;;5075008;28;20039;-79
2022/08/06 02:11:46;;;;;;;6.63;2.15;;;20.50;68.60;;;;;;5074486;28;20074;-78
2022/08/06 02:14:14;;;;;;;4.22;2.33;;;20.50;68.10;;;;;;5073660;28;20063;-78
2022/08/06 02:16:45;;;;;;;7.70;2.58;;;20.50;68.20;;;;;;5073757;28;20076;-78
2022/08/06 02:19:14;;;;;;;3.97;2.20;;;20.50;67.40;;;;;;5074041;28;20481;-80
2022/08/06 02:21:44;;;;;;;5.45;2.10;;;20.50;67.60;;;;;;5073969;28;20029;-80
2022/08/06 02:24:11;;;;;;;5.82;2.30;;;20.60;67.50;;;;;;5058047;28;20033;-81
2022/08/06 02:26:40;;;;;;;3.83;1.90;;;20.70;66.70;;;;;;5073671;28;20028;-81
2022/08/06 02:29:09;;;;;;;4.40;2.30;;;20.70;66.90;;;;;;5073773;28;20024;-81
2022/08/06 02:31:37;;;;;;;4.45;2.42;;;20.60;66.50;;;;;;5074877;28;20032;-80
2022/08/06 02:34:02;;;;;;;2.10;1.80;;;20.50;66.70;;;;;;5040680;28;20033;-80
2022/08/06 02:36:43;;;;;;;2.80;2.13;;;20.60;66.60;;;;;;5075237;28;20044;-80
2022/08/06 02:39:20;;;;;;;2.67;1.90;;;20.60;66.40;;;;;;5073656;28;20029;-80
2022/08/06 02:42:14;;;;;;;4.60;2.30;;;20.50;66.70;;;;;;5073624;28;20120;-80
2022/08/06 02:44:59;;;;;;;5.78;2.40;;;20.40;67.00;;;;;;5073871;28;20077;-81
2022/08/06 02:47:30;;;;;;;2.50;2.20;;;20.30;67.60;;;;;;5057517;28;20175;-80
2022/08/06 02:49:59;;;;;;;2.17;1.77;;;20.30;67.60;;;;;;5073452;28;20059;-81
2022/08/06 02:52:46;;;;;;;2.45;2.17;;;20.20;67.40;;;;;;5056455;28;20485;-80
2022/08/06 02:55:16;;;;;;;4.60;2.58;;;20.10;68.50;;;;;;5073396;28;20115;-80
2022/08/06 02:57:51;;;;;;;6.70;2.22;;;20.10;68.80;;;;;;5072907;28;20033;-79
2022/08/06 03:00:21;;;;;;;4.05;1.85;;;20.10;68.60;;;;;;5074485;28;20028;-80
2022/08/06 03:02:51;;;;;;;4.85;2.15;;;20.10;68.60;;;;;;5073086;28;20035;-80
2022/08/06 03:05:20;;;;;;;5.13;2.40;;;20.00;68.60;;;;;;5056834;28;20025;-78
2022/08/06 03:07:52;;;;;;;2.63;1.98;;;20.10;67.60;;;;;;5072113;28;20039;-80
2022/08/06 03:10:21;;;;;;;4.82;2.17;;;19.90;67.50;;;;;;5074163;28;20432;-78
2022/08/06 03:12:48;;;;;;;3.92;2.20;;;19.80;67.50;;;;;;5056342;28;20040;-79
2022/08/06 03:15:17;;;;;;;3.85;2.10;;;19.80;67.90;;;;;;5072449;28;20676;-79
2022/08/06 03:17:44;;;;;;;6.28;2.40;;;19.80;68.30;;;;;;5056231;28;20051;-78
2022/08/06 03:20:12;;;;;;;6.53;2.20;;;20.00;68.40;;;;;;5072702;28;20025;-78
2022/08/06 03:22:39;;;;;;;2.45;1.77;;;20.10;68.20;;;;;;5056674;28;20032;-78
2022/08/06 03:25:09;;;;;;;3.20;2.00;;;20.30;67.70;;;;;;5072861;28;20020;-78
2022/08/06 03:27:37;;;;;;;3.78;1.92;;;20.40;67.30;;;;;;5073713;28;20040;-78
2022/08/06 03:30:03;;;;;;;1.83;1.58;;;20.50;67.00;;;;;;5055687;28;20028;-79
2022/08/06 03:32:29;;;;;;;1.85;1.58;;;20.50;66.50;;;;;;5055806;28;20086;-79
2022/08/06 03:34:57;;;;;;;3.47;1.88;;;20.60;66.20;;;;;;5072458;28;20355;-79
2022/08/06 03:37:23;;;;;;;1.98;1.50;;;20.60;65.50;;;;;;5072202;28;20031;-78
2022/08/06 03:39:50;;;;;;;8.60;2.22;;;20.50;65.60;;;;;;5055547;28;20390;-79
2022/08/06 03:42:16;;;;;;;3.63;1.88;;;20.50;65.60;;;;;;5071372;28;20028;-80
2022/08/06 03:44:42;;;;;;;8.43;1.92;;;20.50;65.70;;;;;;5072037;28;20382;-79
2022/08/06 03:47:25;;;;;;;2.80;1.80;;;20.40;65.30;;;;;;5071428;28;20044;-80
2022/08/06 03:50:04;;;;;;;4.10;1.80;;;20.30;65.80;;;;;;5072270;28;20029;-80
2022/08/06 03:52:37;;;;;;;4.63;1.92;;;20.30;65.70;;;;;;5073434;28;20049;-80
2022/08/06 03:55:05;;;;;;;2.92;1.45;;;20.20;66.30;;;;;;5056182;28;20038;-80
2022/08/06 03:57:39;;;;;;;3.88;1.95;;;20.30;67.00;;;;;;5072118;28;20032;-79
2022/08/06 04:00:09;;;;;;;2.08;1.75;;;20.30;65.50;;;;;;5073691;28;20056;-79
2022/08/06 04:02:47;;;;;;;2.85;1.77;;;20.30;65.50;;;;;;5072194;28;20032;-81
2022/08/06 04:05:17;;;;;;;1.77;1.60;;;20.30;64.70;;;;;;5056721;28;20035;-81
2022/08/06 04:07:44;;;;;;;3.83;1.75;;;20.20;65.10;;;;;;5074210;28;20020;-80
2022/08/06 04:10:11;;;;;;;3.42;1.52;;;20.20;65.70;;;;;;5089013;28;20027;-79
2022/08/06 04:12:36;;;;;;;2.17;1.60;;;20.30;65.70;;;;;;5092464;28;20021;-79
2022/08/06 04:15:03;;;;;;;2.33;1.50;;;20.30;65.10;;;;;;5095699;28;20051;-80
2022/08/06 04:17:31;;;;;;;5.40;2.05;;;20.30;65.30;;;;;;5091306;28;20109;-81
2022/08/06 04:19:58;;;;;;;2.72;2.08;;;20.30;65.50;;;;;;5078817;28;20063;-81
2022/08/06 04:22:27;;;;;;;4.35;1.60;;;20.20;66.10;;;;;;5055533;28;20140;-81
2022/08/06 04:24:52;;;;;;;3.03;1.38;;;20.20;66.10;;;;;;5071867;28;20086;-82
2022/08/06 04:27:20;;;;;;;5.00;1.58;;;20.30;65.70;;;;;;5071827;28;20021;-81
2022/08/06 04:29:47;;;;;;;3.28;1.98;;;20.20;65.10;;;;;;5071905;28;20088;-81
2022/08/06 04:32:15;;;;;;;4.07;1.60;;;20.10;65.00;;;;;;5055208;28;20029;-81
2022/08/06 04:34:43;;;;;;;1.45;1.15;;;20.10;65.00;;;;;;5055029;28;20025;-80
2022/08/06 04:37:09;;;;;;;2.42;1.42;;;20.00;64.70;;;;;;5071538;28;20032;-81
2022/08/06 04:39:35;;;;;;;8.95;1.70;;;20.00;64.80;;;;;;5073112;28;20054;-79
2022/08/06 04:42:02;;;;;;;4.07;1.75;;;20.00;64.90;;;;;;5072097;28;20509;-80
2022/08/06 04:44:30;;;;;;;3.92;1.70;;;19.90;65.50;;;;;;5071930;28;20048;-80
2022/08/06 04:46:58;;;;;;;6.50;1.48;;;20.00;65.50;;;;;;5055068;28;20044;-80
2022/08/06 04:49:24;;;;;;;2.78;1.40;;;20.10;65.30;;;;;;5054945;28;20029;-80
2022/08/06 04:51:49;;;;;;;4.20;1.60;;;20.00;64.80;;;;;;5071670;28;20036;-80
2022/08/06 04:54:15;;;;;;;2.53;1.45;;;20.10;64.50;;;;;;5071594;28;20032;-79
2022/08/06 04:56:43;;;;;;;3.13;1.60;;;20.10;64.00;;;;;;5072859;28;20021;-80
2022/08/06 04:59:09;;;;;;;2.72;1.35;;;20.10;63.60;;;;;;5075396;28;20040;-78
2022/08/06 05:01:36;;;;;;;2.15;1.20;;;20.00;62.00;;;;;;5077097;28;20047;-78
2022/08/06 05:04:02;;;;;;;2.15;1.25;;;20.00;62.20;;;;;;5075484;28;20033;-78
2022/08/06 05:06:55;;;;;;;4.07;1.35;;;19.90;62.70;;;;;;5075666;28;20021;-78
2022/08/06 05:09:23;;;;;;;2.88;1.33;;;20.00;63.10;;;;;;5075345;28;20040;-77
2022/08/06 05:12:02;;;;;;;4.40;1.40;;;20.20;62.20;;;;;;5042360;28;20363;-78
2022/08/06 05:14:52;;;;;;;4.32;1.20;;;20.20;61.60;;;;;;5075912;28;20077;-78
2022/08/06 05:17:23;;;;;;;4.38;1.30;;;20.20;61.60;;;;;;5070476;28;20117;-78
2022/08/06 05:19:58;;;;;;;1.60;1.20;;;20.00;61.60;;;;;;5076209;28;20055;-79
2022/08/06 05:22:30;;;;;;;3.15;1.55;;;20.00;62.00;;;;;;5076161;28;20060;-79
2022/08/06 05:24:56;;;;;;;3.47;1.48;;;20.00;62.70;;;;;;5075615;28;20025;-80
2022/08/06 05:27:24;;;;;;;8.60;1.50;;;20.00;62.50;;;;;;5076899;28;20025;-79
2022/08/06 05:29:50;;;;;;;3.30;1.17;;;20.00;62.70;;;;;;5075073;28;20374;-79
2022/08/06 05:32:21;;;;;;;2.35;1.23;;;20.00;62.20;;;;;;5074397;28;20046;-79
2022/08/06 05:34:49;;;;;;;3.42;1.55;;;20.00;62.60;;;;;;5075328;28;20031;-79
2022/08/06 05:37:15;;;;;;;1.35;1.20;;;19.90;62.30;;;;;;5074719;28;20042;-79
2022/08/06 05:39:43;;;;;;;1.20;1.02;;;19.90;62.40;;;;;;5057914;28;20123;-79
2022/08/06 05:42:09;;;;;;;4.80;1.70;;;19.90;62.70;;;;;;5074601;28;20013;-79
2022/08/06 05:44:36;;;;;;;1.65;1.20;;;19.90;62.40;;;;;;5074297;28;20027;-78
2022/08/06 05:47:06;;;;;;;3.85;1.20;;;19.90;61.90;;;;;;5074425;28;20059;-80
2022/08/06 05:49:46;;;;;;;4.68;1.15;;;20.00;61.70;;;;;;5058018;28;20124;-78
2022/08/06 05:52:28;;;;;;;4.68;1.35;;;20.10;60.90;;;;;;5074608;28;20070;-80
2022/08/06 05:55:06;;;;;;;2.70;1.23;;;20.10;60.70;;;;;;5074087;28;20028;-80
2022/08/06 05:57:42;;;;;;;4.72;1.48;;;20.00;60.80;;;;;;5074253;28;20029;-79
2022/08/06 06:00:12;;;;;;;2.33;1.02;;;20.10;61.00;;;;;;5074598;28;20099;-78
2022/08/06 06:02:45;;;;;;;2.08;1.00;;;20.10;61.30;;;;;;5058167;28;20064;-78
2022/08/06 06:05:13;;;;;;;2.60;1.35;;;20.20;61.10;;;;;;5074253;28;20106;-78
2022/08/06 06:07:39;;;;;;;2.70;1.30;;;20.20;60.40;;;;;;5057468;28;20034;-80
2022/08/06 06:10:06;;;;;;;2.08;1.27;;;20.40;59.60;;;;;;5073635;28;20082;-78
2022/08/06 06:12:34;;;;;;;4.05;1.13;;;20.40;59.10;;;;;;5075714;28;20572;-80
2022/08/06 06:15:03;;;;;;;3.45;1.63;;;20.50;58.90;;;;;;5074866;28;20095;-80
2022/08/06 06:18:06;;;;;;;3.67;1.38;;;20.60;58.50;;;;;;5059498;28;20074;-77
2022/08/06 06:20:57;;;;;;;2.30;1.00;;;20.50;58.90;;;;;;5074725;28;20488;-74
2022/08/06 06:23:44;;;;;;;8.32;1.65;;;20.50;59.00;;;;;;5075294;28;20390;-73
2022/08/06 06:26:09;;;;;;;8.30;1.50;;;20.50;58.90;;;;;;5075525;28;20096;-73
2022/08/06 06:28:51;;;;;;;2.30;1.35;;;20.60;58.30;;;;;;5075283;28;20482;-72
2022/08/06 06:31:45;;;;;;;2.53;1.33;;;20.70;58.50;;;;;;5056879;28;20028;-71
2022/08/06 06:34:39;;;;;;;12.45;3.10;;;20.80;57.90;;;;;;5075013;28;20056;-72
2022/08/06 06:37:36;;;;;;;9.50;2.78;;;20.80;58.30;;;;;;5073362;28;20486;-72
2022/08/06 06:40:24;;;;;;;16.63;3.33;;;20.80;58.50;;;;;;5054232;28;20379;-72
2022/08/06 06:43:07;;;;;;;5.03;1.23;;;20.80;58.70;;;;;;5074875;28;20486;-72
2022/08/06 06:45:44;;;;;;;2.03;1.33;;;20.90;58.00;;;;;;5074772;28;20025;-71
2022/08/06 06:48:19;;;;;;;3.35;1.27;;;20.90;57.40;;;;;;5074568;28;20441;-73
2022/08/06 06:50:47;;;;;;;;;;;20.90;57.60;;;;;;5073636;28;20024;-72
2022/08/06 06:53:14;;;;;;;2.67;1.02;;;21.00;57.10;;;;;;5075021;28;19906;-71
2022/08/06 06:55:45;;;;;;;3.60;1.35;;;21.10;57.10;;;;;;5074539;28;20028;-71
2022/08/06 06:58:25;;;;;;;1.35;1.10;;;21.20;56.80;;;;;;5074233;28;20042;-71
2022/08/06 07:00:53;;;;;;;3.20;1.40;;;21.20;56.90;;;;;;5074182;28;20381;-71
2022/08/06 07:03:20;;;;;;;3.38;1.20;;;21.30;56.70;;;;;;5074335;28;20021;-71
2022/08/06 07:05:49;;;;;;;5.25;1.30;;;21.30;56.50;;;;;;5073943;28;20339;-71
2022/08/06 07:08:18;;;;;;;2.60;1.40;;;21.30;56.60;;;;;;5074112;28;20020;-73
2022/08/06 07:10:45;;;;;;;1.65;1.20;;;21.30;56.30;;;;;;5074370;28;20027;-72
2022/08/06 07:13:12;;;;;;;6.03;1.20;;;21.30;56.10;;;;;;5074136;28;20021;-72
2022/08/06 07:15:40;;;;;;;3.30;1.50;;;21.40;56.10;;;;;;5073913;28;20043;-72
2022/08/06 07:18:06;;;;;;;2.28;1.23;;;21.40;55.60;;;;;;5074589;28;20040;-72
2022/08/06 07:20:34;;;;;;;2.03;1.35;;;21.40;55.50;;;;;;5074870;28;20028;-72
2022/08/06 07:23:03;;;;;;;2.97;1.30;;;21.50;55.20;;;;;;5073908;28;20144;-72
2022/08/06 07:25:29;;;;;;;3.28;1.52;;;21.60;55.10;;;;;;5074388;28;20024;-72
2022/08/06 07:27:55;;;;;;;5.53;1.40;;;21.70;54.90;;;;;;5074606;28;20029;-72
2022/08/06 07:30:21;;;;;;;2.20;1.30;;;21.90;54.10;;;;;;5074555;28;20040;-73
2022/08/06 07:32:49;;;;;;;5.25;1.55;;;22.00;54.00;;;;;;5073831;28;20103;-73
2022/08/06 07:35:19;;;;;;;5.63;1.60;;;21.90;53.90;;;;;;5073510;28;20055;-73
2022/08/06 07:38:06;;;;;;;2.35;1.17;;;21.90;54.10;;;;;;5073385;28;20490;-72
2022/08/06 07:40:38;;;;;;;3.35;1.48;;;21.90;53.90;;;;;;5073383;28;20347;-72
2022/08/06 07:43:18;;;;;;;2.63;1.30;;;21.90;54.10;;;;;;5073431;28;20481;-73
2022/08/06 07:45:47;;;;;;;3.10;1.17;;;21.90;53.80;;;;;;5073451;28;20102;-73
2022/08/06 07:48:15;;;;;;;2.83;1.30;;;22.00;53.30;;;;;;5073215;28;20090;-73
2022/08/06 07:50:44;;;;;;;4.43;1.30;;;22.00;53.30;;;;;;5073267;28;20028;-72
2022/08/06 07:53:11;;;;;;;2.63;1.23;;;22.10;53.30;;;;;;5073186;28;20017;-73
2022/08/06 07:55:38;;;;;;;4.28;1.45;;;22.10;53.10;;;;;;5072077;28;20493;-72
2022/08/06 07:58:04;;;;;;;5.97;1.30;;;22.20;53.20;;;;;;5073099;28;20425;-73
2022/08/06 08:00:31;;;;;;;5.63;1.42;;;22.20;52.90;;;;;;5073291;28;20032;-73
2022/08/06 08:08:29;;;;;;;2.40;1.40;;;22.30;52.20;;;;;;5073051;28;20044;-73
2022/08/06 08:10:55;;;;;;;3.50;1.23;;;22.50;51.70;;;;;;5072962;28;20028;-72
2022/08/06 08:13:23;;;;;;;6.45;1.58;;;22.60;51.40;;;;;;5071403;28;20436;-72
2022/08/06 08:15:49;;;;;;;2.58;1.17;;;22.70;51.50;;;;;;5072708;28;20051;-72
2022/08/06 08:18:15;;;;;;;5.20;1.10;;;22.80;51.10;;;;;;5073204;28;20036;-72
2022/08/06 08:20:44;;;;;;;6.25;1.88;;;22.90;50.50;;;;;;5072866;28;20024;-73
2022/08/06 08:23:12;;;;;;;2.10;1.27;;;22.90;50.80;;;;;;5072783;28;20093;-73
2022/08/06 08:25:38;;;;;;;2.05;1.02;;;23.10;50.40;;;;;;5072856;28;20020;-72
2022/08/06 08:28:05;;;;;;;2.28;1.25;;;23.30;50.00;;;;;;5072794;28;20035;-72
2022/08/06 08:30:31;;;;;;;2.58;1.15;;;23.30;49.50;;;;;;5071687;28;20087;-72
2022/08/06 08:32:56;;;;;;;5.70;1.48;;;23.40;49.20;;;;;;5072634;28;20104;-73
2022/08/06 08:35:22;;;;;;;6.97;1.30;;;23.30;49.40;;;;;;5072783;28;20125;-73
2022/08/06 08:37:47;;;;;;;2.45;1.30;;;23.30;49.10;;;;;;5071818;28;20032;-73
2022/08/06 08:40:13;;;;;;;2.35;1.35;;;23.30;49.10;;;;;;5073349;28;20098;-74
2022/08/06 08:42:45;;;;;;;2.45;1.38;;;23.20;49.30;;;;;;5072788;28;20384;-73
2022/08/06 08:45:12;;;;;;;3.35;1.40;;;23.20;49.50;;;;;;5072675;28;20029;-72
2022/08/06 08:47:45;;;;;;;4.05;1.42;;;23.10;49.60;;;;;;5072558;28;20051;-73
2022/08/06 08:50:11;;;;;;;4.15;1.70;;;23.00;49.70;;;;;;5072497;28;20104;-73
2022/08/06 08:52:40;;;;;;;8.40;2.38;;;23.00;49.80;;;;;;5072800;28;20032;-72
2022/08/06 08:55:11;;;;;;;14.07;3.40;;;23.10;49.80;;;;;;5072653;28;20029;-72
2022/08/06 08:57:38;;;;;;;6.68;2.45;;;23.10;49.80;;;;;;5072319;28;20521;-72
2022/08/06 09:00:06;;;;;;;7.57;2.35;;;23.00;49.80;;;;;;5072587;28;20142;-73
2022/08/06 09:02:31;;;;;;;4.53;1.90;;;22.80;50.00;;;;;;5072514;28;20051;-72
2022/08/06 09:04:58;;;;;;;4.70;2.20;;;23.00;50.40;;;;;;5072349;28;20474;-74
2022/08/06 09:07:24;;;;;;;6.15;2.17;;;23.10;50.30;;;;;;5072406;28;20029;-73
2022/08/06 09:09:50;;;;;;;9.15;2.03;;;23.30;49.60;;;;;;5072508;28;20031;-72
2022/08/06 09:12:16;;;;;;;4.28;1.83;;;23.50;48.80;;;;;;5072338;28;20394;-74
2022/08/06 09:14:43;;;;;;;3.08;1.30;;;23.50;47.90;;;;;;5072395;28;20025;-73
2022/08/06 09:17:09;;;;;;;6.18;2.17;;;23.50;48.00;;;;;;5072219;28;20029;-72
2022/08/06 09:19:35;;;;;;;3.47;1.75;;;23.70;47.90;;;;;;5072429;28;20048;-73
2022/08/06 09:22:01;;;;;;;4.45;1.30;;;23.60;47.20;;;;;;5072435;28;20074;-73
2022/08/06 09:24:27;;;;;;;5.90;1.80;;;23.80;46.80;;;;;;5072408;28;20026;-72
2022/08/06 09:27:03;;;;;;;3.22;1.30;;;23.90;46.40;;;;;;5072253;28;20038;-72
2022/08/06 09:29:28;;;;;;;1.27;0.93;;;24.00;46.40;;;;;;5072256;28;20017;-73
2022/08/06 09:31:54;;;;;;;5.00;1.83;;;24.00;46.10;;;;;;5071931;28;20028;-72
2022/08/06 09:34:20;;;;;;;4.10;1.50;;;24.20;45.90;;;;;;5070747;28;20024;-72
2022/08/06 09:36:47;;;;;;;2.10;1.10;;;24.30;46.10;;;;;;5071933;28;20051;-72
2022/08/06 09:39:13;;;;;;;5.18;1.35;;;24.30;45.30;;;;;;5072075;28;20067;-72
2022/08/06 09:41:49;;;;;;;2.33;1.55;;;24.20;45.40;;;;;;5071984;28;20024;-71
2022/08/06 09:44:15;;;;;;;2.67;1.50;;;24.20;45.90;;;;;;5072426;28;20067;-70
2022/08/06 09:46:42;;;;;;;3.72;1.58;;;24.20;45.80;;;;;;5076554;28;20024;-71
2022/08/06 09:49:10;;;;;;;2.53;1.25;;;24.20;45.60;;;;;;5075832;28;20493;-71
2022/08/06 09:51:37;;;;;;;3.65;1.40;;;24.10;45.70;;;;;;5075605;28;20020;-72
2022/08/06 09:54:05;;;;;;;2.30;1.27;;;24.00;45.50;;;;;;5075539;28;20103;-71
2022/08/06 09:56:32;;;;;;;2.13;1.13;;;23.90;45.90;;;;;;5075400;28;20024;-71
2022/08/06 09:59:03;;;;;;;3.20;1.52;;;23.90;46.20;;;;;;5075271;28;20047;-71
2022/08/06 10:01:29;;;;;;;5.28;1.50;;;23.70;47.10;;;;;;5075302;28;20029;-71
2022/08/06 10:03:57;;;;;;;3.22;1.30;;;23.50;47.20;;;;;;5075445;28;20028;-73
2022/08/06 10:06:24;;;;;;;4.35;1.60;;;23.50;47.70;;;;;;5075470;28;20024;-73
2022/08/06 10:09:09;;;;;;;2.10;1.05;;;23.60;47.60;;;;;;5075330;28;20031;-73
2022/08/06 10:11:40;;;;;;;3.85;1.50;;;23.60;47.10;;;;;;5074044;28;20031;-73
2022/08/06 10:14:20;;;;;;;2.42;1.40;;;23.50;47.20;;;;;;5075249;28;20021;-73
2022/08/06 10:17:02;;;;;;;3.58;1.30;;;23.40;47.60;;;;;;5074950;28;20429;-72
2022/08/06 10:19:28;;;;;;;3.63;1.40;;;23.40;47.40;;;;;;5074895;28;20426;-72
2022/08/06 10:21:53;;;;;;;2.72;1.42;;;23.50;47.10;;;;;;5074994;28;20033;-71
2022/08/06 10:24:20;;;;;;;4.70;1.40;;;23.40;47.10;;;;;;5074674;28;20060;-71
2022/08/06 10:26:46;;;;;;;2.35;1.67;;;23.40;47.50;;;;;;5074648;28;20032;-72
2022/08/06 10:29:15;;;;;;;4.35;1.88;;;23.30;47.50;;;;;;5073446;28;20478;-72
2022/08/06 10:31:42;;;;;;;3.13;1.42;;;23.30;47.70;;;;;;5075126;28;20420;-72
2022/08/06 10:34:23;;;;;;;4.32;1.35;;;23.30;47.60;;;;;;5073735;28;20487;-72
2022/08/06 10:37:05;;;;;;;2.10;1.35;;;23.30;47.90;;;;;;5074691;28;20056;-72
2022/08/06 10:39:36;;;;;;;5.45;2.08;;;23.40;47.80;;;;;;5074679;28;20020;-72
2022/08/06 10:42:03;;;;;;;3.17;1.50;;;23.40;47.60;;;;;;5074710;28;20492;-71
2022/08/06 10:44:30;;;;;;;2.47;1.35;;;23.40;47.50;;;;;;5074307;28;20382;-72
2022/08/06 10:46:55;;;;;;;3.30;1.60;;;23.50;47.40;;;;;;5074375;28;20044;-72
2022/08/06 10:49:22;;;;;;;6.97;2.17;;;23.50;47.50;;;;;;5074193;28;20029;-72
2022/08/06 10:51:49;;;;;;;3.58;1.77;;;23.60;47.30;;;;;;5074356;28;20334;-72
2022/08/06 10:54:16;;;;;;;2.97;1.63;;;23.70;46.80;;;;;;5074351;28;20035;-70
2022/08/06 10:56:41;;;;;;;4.32;1.90;;;23.90;46.70;;;;;;5076371;28;20024;-72
2022/08/06 10:59:10;;;;;;;2.97;1.77;;;23.90;46.00;;;;;;5074298;28;20093;-72
2022/08/06 11:02:03;;;;;;;8.25;2.53;;;23.80;45.90;;;;;;5074155;28;20116;-72
2022/08/06 11:04:56;;;;;;;5.15;1.88;;;23.90;46.20;;;;;;5073024;28;20047;-72
2022/08/06 11:07:54;;;;;;;2.50;1.40;;;23.80;47.00;;;;;;5074302;28;20020;-73
2022/08/06 11:10:57;;;;;;;3.30;1.63;;;23.90;47.40;;;;;;5074007;28;20488;-73
2022/08/06 11:14:07;;;;;;;3.58;1.80;;;23.90;46.70;;;;;;5074008;28;20050;-72
2022/08/06 11:16:32;;;;;;;7.45;1.98;;;23.60;46.60;;;;;;5051540;28;20033;-71
2022/08/06 11:19:09;;;;;;;8.35;2.50;;;23.30;47.90;;;;;;5070250;28;20447;-73
2022/08/06 11:21:42;;;;;;;7.30;1.83;;;23.00;48.00;;;;;;5073472;28;20032;-71
2022/08/06 11:24:09;;;;;;;3.90;2.00;;;22.80;48.40;;;;;;5073516;28;20039;-72
2022/08/06 11:26:38;;;;;;;5.10;1.70;;;22.60;49.20;;;;;;5073232;28;20149;-72
2022/08/06 11:29:08;;;;;;;2.40;1.30;;;22.70;49.60;;;;;;5073232;28;20020;-72
2022/08/06 11:31:36;;;;;;;5.97;2.60;;;22.70;49.60;;;;;;5073999;28;20099;-72
2022/08/06 11:34:09;;;;;;;3.67;2.70;;;22.70;49.60;;;;;;5073285;28;20017;-72
2022/08/06 11:36:52;;;;;;;7.40;3.58;;;22.80;49.60;;;;;;5071887;28;20046;-72
2022/08/06 11:39:22;;;;;;;4.03;1.83;;;23.00;48.80;;;;;;5073059;28;20118;-71
2022/08/06 11:41:54;;;;;;;3.35;1.50;;;22.90;48.50;;;;;;5071562;28;20131;-71
2022/08/06 11:44:23;;;;;;;4.93;1.70;;;23.10;48.70;;;;;;5071374;28;20028;-72
2022/08/06 11:47:04;;;;;;;2.75;1.40;;;23.20;48.20;;;;;;5073040;28;20543;-71
2022/08/06 11:49:42;;;;;;;4.28;1.77;;;23.50;48.10;;;;;;5073074;28;20055;-71
2022/08/06 11:52:07;;;;;;;2.10;1.40;;;23.60;46.40;;;;;;5072955;28;20017;-72
2022/08/06 11:54:48;;;;;;;3.05;1.50;;;23.80;46.40;;;;;;5072896;28;20044;-71
2022/08/06 11:57:14;;;;;;;3.67;1.77;;;24.00;45.70;;;;;;5072918;28;20024;-72
2022/08/06 11:59:42;;;;;;;32.88;26.80;;;24.30;45.40;;;;;;5072881;28;20031;-72
2022/08/06 12:02:09;;;;;;;4.70;1.85;;;24.50;45.60;;;;;;5073045;28;20466;-71
2022/08/06 12:04:35;;;;;;;3.58;1.20;;;24.60;44.90;;;;;;5073178;28;20024;-72
2022/08/06 12:07:21;;;;;;;4.15;2.10;;;24.60;43.70;;;;;;5072902;28;20496;-72
2022/08/06 12:10:06;;;;;;;3.08;2.08;;;24.70;43.50;;;;;;5074844;28;20128;-73
2022/08/06 12:12:45;;;;;;;2.92;1.55;;;24.70;42.90;;;;;;5074142;28;20029;-71
2022/08/06 12:15:19;;;;;;;6.38;1.52;;;24.50;42.60;;;;;;5073842;28;20047;-74
2022/08/06 12:17:53;;;;;;;4.25;1.65;;;24.40;43.10;;;;;;5073303;28;20470;-72
2022/08/06 12:20:32;;;;;;;3.05;1.65;;;24.40;44.00;;;;;;5072985;28;20119;-73
2022/08/06 12:22:59;;;;;;;3.60;1.60;;;24.40;42.90;;;;;;5072955;28;20032;-72
2022/08/06 12:25:37;;;;;;;2.25;1.60;;;24.40;42.70;;;;;;5072904;28;20039;-74
2022/08/06 12:28:04;;;;;;;4.00;1.63;;;24.30;44.00;;;;;;5072767;28;20486;-72
2022/08/06 12:30:50;;;;;;;2.70;1.35;;;24.30;43.60;;;;;;5071621;28;20393;-73
2022/08/06 12:33:17;;;;;;;3.72;1.48;;;24.20;43.60;;;;;;5072837;28;20029;-73
2022/08/06 12:35:57;;;;;;;3.55;1.65;;;24.10;44.30;;;;;;5072968;28;20488;-72
2022/08/06 12:38:26;;;;;;;3.67;1.55;;;24.00;44.50;;;;;;5072698;28;20040;-72
2022/08/06 12:41:06;;;;;;;9.35;5.50;;;24.00;45.00;;;;;;5072868;28;20103;-75
2022/08/06 12:43:33;;;;;;;4.85;2.00;;;23.90;45.30;;;;;;5072790;28;20118;-72
2022/08/06 12:46:04;;;;;;;2.63;1.63;;;23.80;45.10;;;;;;5072721;28;20024;-72
2022/08/06 12:48:30;;;;;;;3.35;1.38;;;23.80;45.20;;;;;;5072399;28;20086;-73
2022/08/06 12:51:11;;;;;;;3.90;1.83;;;23.80;44.90;;;;;;5072476;28;20020;-73
2022/08/06 12:53:52;;;;;;;5.63;1.83;;;24.00;44.90;;;;;;5072359;28;20024;-72
2022/08/06 12:56:21;;;;;;;4.80;1.77;;;24.00;43.80;;;;;;5072473;28;20027;-72
2022/08/06 12:58:48;;;;;;;5.60;1.98;;;23.90;43.80;;;;;;5072352;28;20033;-72
2022/08/06 13:01:16;;;;;;;3.70;1.70;;;24.00;44.00;;;;;;5072531;28;20075;-72
2022/08/06 13:03:46;;;;;;;5.88;1.90;;;24.00;44.90;;;;;;5072541;28;20470;-73
2022/08/06 13:06:14;;;;;;;2.05;1.85;;;24.10;44.60;;;;;;5072039;28;20054;-72
2022/08/06 13:08:41;;;;;;;4.03;1.85;;;24.10;44.00;;;;;;5072433;28;20082;-72
2022/08/06 13:11:07;;;;;;;15.82;13.65;;;24.20;44.20;;;;;;5072621;28;20075;-73